Time;durP1;ratioP1;P1;durP2;ratioP2;P2;SDS_P1;SDS_P2;PMS_P1;PMS_P2;Temp;Humidity;BMP_temperature;BMP_pressure;BME280_temperature;BME280_humidity;BME280_pressure;Samples;Min_cycle;Max_cycle;Signal;HPM_P1;HPM_P2
2023/12/14 00:01:10;;;;;;;5.35;4.82;;;7.10;99.90;;;;;;470042;253;28067;-74
2023/12/14 00:03:08;;;;;;;6.87;4.32;;;7.10;99.90;;;;;;469855;253;28161;-75
2023/12/14 00:05:09;;;;;;;4.47;3.75;;;7.10;99.90;;;;;;470200;249;27595;-73
2023/12/14 00:07:14;;;;;;;4.47;4.07;;;7.10;99.90;;;;;;470189;253;27633;-74
2023/12/14 00:09:12;;;;;;;6.00;4.70;;;7.10;99.90;;;;;;469760;253;28973;-74
2023/12/14 00:11:13;;;;;;;6.60;4.47;;;7.10;99.90;;;;;;470100;253;28923;-74
2023/12/14 00:13:14;;;;;;;7.80;4.83;;;7.10;99.90;;;;;;470105;253;28261;-74
2023/12/14 00:15:16;;;;;;;6.10;4.47;;;7.10;99.90;;;;;;470096;253;27937;-74
2023/12/14 00:17:17;;;;;;;7.60;5.80;;;7.10;99.90;;;;;;470027;253;28943;-74
2023/12/14 00:19:18;;;;;;;5.95;5.22;;;7.00;99.90;;;;;;470103;253;28035;-73
2023/12/14 00:21:19;;;;;;;8.00;5.43;;;7.00;99.90;;;;;;470077;253;27998;-74
2023/12/14 00:23:21;;;;;;;7.80;5.63;;;7.00;99.90;;;;;;470142;253;28281;-75
2023/12/14 00:25:23;;;;;;;6.43;5.83;;;7.00;99.90;;;;;;470169;253;28950;-74
2023/12/14 00:27:24;;;;;;;7.37;5.50;;;6.90;99.90;;;;;;470031;253;28968;-74
2023/12/14 00:29:25;;;;;;;7.07;5.83;;;7.00;99.90;;;;;;470079;253;28930;-73
2023/12/14 00:31:26;;;;;;;7.63;5.50;;;7.00;99.90;;;;;;470097;253;28965;-74
2023/12/14 00:33:28;;;;;;;6.28;5.30;;;7.00;99.90;;;;;;470053;253;29425;-74
2023/12/14 00:35:29;;;;;;;6.67;5.17;;;7.00;99.90;;;;;;470074;253;28145;-74
2023/12/14 00:37:30;;;;;;;7.68;5.90;;;7.00;99.90;;;;;;462421;257;28992;-74
2023/12/14 00:39:31;;;;;;;6.80;5.80;;;7.00;99.90;;;;;;470198;253;27555;-74
2023/12/14 00:41:33;;;;;;;11.23;5.93;;;7.00;99.90;;;;;;470211;253;28948;-74
2023/12/14 00:43:34;;;;;;;7.00;5.22;;;7.10;99.90;;;;;;470116;253;27585;-74
2023/12/14 00:45:35;;;;;;;5.90;5.05;;;7.00;99.90;;;;;;470201;253;27531;-74
2023/12/14 00:47:36;;;;;;;7.47;6.00;;;7.00;99.90;;;;;;470035;253;28032;-74
2023/12/14 00:49:38;;;;;;;8.10;5.23;;;7.00;99.90;;;;;;470001;253;29470;-75
2023/12/14 00:51:40;;;;;;;7.20;5.50;;;7.00;99.90;;;;;;470142;253;29194;-74
2023/12/14 00:53:40;;;;;;;9.87;6.67;;;7.00;99.90;;;;;;470074;253;31326;-75
2023/12/14 00:55:41;;;;;;;9.55;6.78;;;7.10;99.90;;;;;;470178;253;29066;-75
2023/12/14 00:57:43;;;;;;;7.80;6.60;;;7.00;99.90;;;;;;470195;253;27582;-74
2023/12/14 00:59:44;;;;;;;9.63;6.07;;;7.10;99.90;;;;;;470141;253;27714;-74
2023/12/14 01:01:46;;;;;;;9.10;5.93;;;7.10;99.90;;;;;;470058;253;28084;-75
2023/12/14 01:03:46;;;;;;;11.77;6.35;;;7.10;99.90;;;;;;470024;253;28151;-74
2023/12/14 01:05:48;;;;;;;9.70;6.05;;;7.10;99.90;;;;;;470098;253;27538;-75
2023/12/14 01:07:49;;;;;;;7.43;5.80;;;7.10;99.90;;;;;;470025;253;28078;-74
2023/12/14 01:09:50;;;;;;;9.23;6.28;;;7.10;99.90;;;;;;470031;253;28628;-74
2023/12/14 01:11:52;;;;;;;11.40;6.00;;;7.10;99.90;;;;;;470031;253;27681;-74
2023/12/14 01:13:53;;;;;;;8.70;6.63;;;7.10;99.90;;;;;;469993;253;28072;-75
2023/12/14 01:15:54;;;;;;;7.40;5.40;;;7.00;99.90;;;;;;470112;253;27999;-74
2023/12/14 01:17:55;;;;;;;12.10;6.35;;;7.00;99.90;;;;;;470200;253;28964;-74
2023/12/14 01:19:57;;;;;;;8.53;6.40;;;7.10;99.90;;;;;;470205;253;27960;-73
2023/12/14 01:21:58;;;;;;;9.40;7.27;;;7.00;99.90;;;;;;469936;249;28357;-75
2023/12/14 01:24:00;;;;;;;7.67;5.93;;;7.00;99.90;;;;;;471160;252;28877;-74
2023/12/14 01:26:00;;;;;;;8.50;6.20;;;7.00;99.90;;;;;;470256;253;29573;-75
2023/12/14 01:28:02;;;;;;;6.33;5.73;;;7.00;99.90;;;;;;471203;252;28510;-73
2023/12/14 01:30:03;;;;;;;8.83;6.90;;;7.10;99.90;;;;;;470333;253;29409;-75
2023/12/14 01:32:04;;;;;;;10.13;6.67;;;7.10;99.90;;;;;;471208;252;29387;-76
2023/12/14 01:34:05;;;;;;;8.17;5.70;;;7.10;99.90;;;;;;470374;253;28817;-74
2023/12/14 01:36:07;;;;;;;9.25;6.87;;;7.00;99.90;;;;;;471230;252;27854;-74
2023/12/14 01:38:10;;;;;;;7.80;6.10;;;7.10;99.90;;;;;;470224;253;27450;-74
2023/12/14 01:40:11;;;;;;;8.50;6.90;;;7.10;99.90;;;;;;471115;252;28419;-74
2023/12/14 01:42:13;;;;;;;9.73;6.60;;;7.10;99.90;;;;;;470222;253;27923;-73
2023/12/14 01:44:14;;;;;;;8.87;6.50;;;7.00;99.90;;;;;;471283;252;27908;-75
2023/12/14 01:46:16;;;;;;;13.73;5.93;;;7.10;99.90;;;;;;470370;253;28191;-75
2023/12/14 01:48:16;;;;;;;9.50;6.60;;;7.10;99.90;;;;;;471114;252;27484;-74
2023/12/14 01:50:18;;;;;;;10.13;6.93;;;7.10;99.90;;;;;;470352;253;27593;-74
2023/12/14 01:52:19;;;;;;;10.40;6.70;;;7.10;99.90;;;;;;471094;252;27782;-73
2023/12/14 01:54:20;;;;;;;9.70;7.27;;;7.10;99.90;;;;;;470250;253;27883;-74
2023/12/14 01:56:21;;;;;;;9.20;7.43;;;7.10;99.90;;;;;;471113;252;27869;-74
2023/12/14 01:58:23;;;;;;;14.00;7.70;;;7.10;99.90;;;;;;470189;253;28921;-76
2023/12/14 02:00:24;;;;;;;11.33;7.50;;;7.10;99.90;;;;;;471076;252;28855;-74
2023/12/14 02:02:25;;;;;;;11.70;7.00;;;7.00;99.90;;;;;;470227;253;28171;-73
2023/12/14 02:04:26;;;;;;;12.77;8.73;;;7.00;99.90;;;;;;471153;251;28684;-74
2023/12/14 02:06:28;;;;;;;11.10;7.87;;;7.00;99.90;;;;;;470203;253;28088;-73
2023/12/14 02:08:29;;;;;;;11.90;7.83;;;7.00;99.90;;;;;;471105;252;28905;-74
2023/12/14 02:10:30;;;;;;;9.83;7.30;;;7.00;99.90;;;;;;470229;253;28956;-74
2023/12/14 02:12:33;;;;;;;9.53;6.67;;;7.00;99.90;;;;;;471109;252;28932;-74
2023/12/14 02:14:33;;;;;;;9.43;6.90;;;7.00;99.90;;;;;;470085;253;28975;-74
2023/12/14 02:16:34;;;;;;;9.65;7.00;;;7.00;99.90;;;;;;471207;252;28571;-74
2023/12/14 02:18:35;;;;;;;11.23;7.40;;;7.00;99.90;;;;;;470405;253;27637;-76
2023/12/14 02:20:36;;;;;;;8.37;6.53;;;7.00;99.90;;;;;;471131;252;28954;-74
2023/12/14 02:22:38;;;;;;;7.50;6.60;;;7.00;99.90;;;;;;470371;253;28933;-74
2023/12/14 02:24:39;;;;;;;9.53;6.87;;;7.00;99.90;;;;;;471229;252;27896;-75
2023/12/14 02:26:40;;;;;;;10.50;7.07;;;7.00;99.90;;;;;;470326;253;29339;-75
2023/12/14 02:28:41;;;;;;;9.03;6.63;;;7.00;99.90;;;;;;471226;252;28644;-75
2023/12/14 02:30:44;;;;;;;10.13;7.03;;;7.00;99.90;;;;;;470367;253;28934;-74
2023/12/14 02:32:44;;;;;;;10.25;7.43;;;7.00;99.90;;;;;;471133;252;28861;-74
2023/12/14 02:34:45;;;;;;;11.43;7.30;;;7.00;99.90;;;;;;470346;253;27425;-76
2023/12/14 02:36:46;;;;;;;8.77;6.70;;;7.00;99.90;;;;;;471225;252;28965;-74
2023/12/14 02:38:48;;;;;;;8.77;6.87;;;7.00;99.90;;;;;;470205;253;28040;-75
2023/12/14 02:40:52;;;;;;;12.83;7.73;;;7.00;99.90;;;;;;471198;252;27767;-76
2023/12/14 02:42:53;;;;;;;10.00;6.50;;;7.00;99.90;;;;;;474919;250;29353;-75
2023/12/14 02:44:54;;;;;;;9.35;6.75;;;7.00;99.90;;;;;;474808;249;28923;-74
2023/12/14 02:46:56;;;;;;;9.13;6.93;;;7.00;99.90;;;;;;474954;249;27740;-74
2023/12/14 02:48:57;;;;;;;10.13;6.70;;;7.00;99.90;;;;;;474958;249;28399;-74
2023/12/14 02:51:00;;;;;;;10.55;7.32;;;7.10;99.90;;;;;;474929;249;27550;-74
2023/12/14 02:53:00;;;;;;;9.32;7.00;;;7.00;99.90;;;;;;474834;249;27515;-74
2023/12/14 02:55:01;;;;;;;9.63;7.20;;;7.00;99.90;;;;;;474872;250;28092;-75
2023/12/14 02:57:02;;;;;;;10.15;7.68;;;7.00;99.90;;;;;;474936;249;28251;-74
2023/12/14 02:59:03;;;;;;;10.65;7.40;;;7.00;99.90;;;;;;475007;249;27529;-75
2023/12/14 03:01:05;;;;;;;11.12;7.68;;;7.00;99.90;;;;;;474797;249;27663;-74
2023/12/14 03:03:06;;;;;;;10.43;7.30;;;7.00;99.90;;;;;;474840;249;27566;-74
2023/12/14 03:05:07;;;;;;;12.80;7.93;;;7.00;99.90;;;;;;474808;249;27561;-74
2023/12/14 03:07:08;;;;;;;10.27;7.80;;;6.90;99.90;;;;;;474827;249;28515;-74
2023/12/14 03:09:10;;;;;;;11.68;7.62;;;7.00;99.90;;;;;;474845;249;27973;-75
2023/12/14 03:11:11;;;;;;;13.98;9.00;;;6.90;99.90;;;;;;474963;249;28101;-74
2023/12/14 03:13:12;;;;;;;14.20;8.40;;;6.90;99.90;;;;;;474972;249;27621;-75
2023/12/14 03:15:14;;;;;;;17.17;8.32;;;6.90;99.90;;;;;;474841;249;27626;-74
2023/12/14 03:17:16;;;;;;;10.45;7.60;;;6.90;99.90;;;;;;474822;249;27570;-74
2023/12/14 03:19:16;;;;;;;14.93;8.47;;;7.00;99.90;;;;;;474887;249;27621;-75
2023/12/14 03:21:17;;;;;;;10.27;7.50;;;7.00;99.90;;;;;;474967;249;28993;-75
2023/12/14 03:23:19;;;;;;;12.10;8.23;;;7.00;99.90;;;;;;474996;249;30168;-75
2023/12/14 03:25:20;;;;;;;12.15;7.75;;;7.00;99.90;;;;;;474977;249;29414;-75
2023/12/14 03:27:23;;;;;;;10.43;7.30;;;7.00;99.90;;;;;;474901;249;27610;-74
2023/12/14 03:29:22;;;;;;;15.57;8.55;;;7.00;99.90;;;;;;474884;249;29036;-73
2023/12/14 03:31:24;;;;;;;12.17;8.40;;;7.00;99.90;;;;;;474940;249;27532;-73
2023/12/14 03:33:25;;;;;;;11.35;8.05;;;7.00;99.90;;;;;;474921;249;29023;-74
2023/12/14 03:35:26;;;;;;;13.18;8.55;;;7.00;99.90;;;;;;474938;249;27603;-75
2023/12/14 03:37:27;;;;;;;11.73;7.93;;;7.00;99.90;;;;;;474958;249;28016;-74
2023/12/14 03:39:29;;;;;;;11.43;7.68;;;6.90;99.90;;;;;;474948;249;28596;-75
2023/12/14 03:41:30;;;;;;;12.73;7.70;;;7.00;99.90;;;;;;474976;250;27582;-74
2023/12/14 03:43:31;;;;;;;11.27;7.50;;;7.00;99.90;;;;;;474983;249;27551;-75
2023/12/14 03:45:32;;;;;;;13.30;9.02;;;6.90;99.90;;;;;;474902;249;27568;-74
2023/12/14 03:47:34;;;;;;;16.43;9.00;;;6.90;99.90;;;;;;474975;249;27536;-76
2023/12/14 03:49:35;;;;;;;11.97;8.57;;;7.00;99.90;;;;;;474980;249;29458;-74
2023/12/14 03:51:36;;;;;;;12.50;8.38;;;7.00;99.90;;;;;;474978;249;28454;-76
2023/12/14 03:53:37;;;;;;;13.47;8.90;;;6.90;99.90;;;;;;474939;249;28154;-74
2023/12/14 03:55:39;;;;;;;13.93;7.67;;;6.90;99.90;;;;;;474964;249;28918;-74
2023/12/14 03:57:40;;;;;;;13.88;8.52;;;7.00;99.90;;;;;;474842;249;28818;-74
2023/12/14 03:59:41;;;;;;;12.33;8.13;;;7.00;99.90;;;;;;474877;249;27658;-73
2023/12/14 04:01:42;;;;;;;14.30;8.70;;;7.00;99.90;;;;;;474835;249;29044;-74
2023/12/14 04:03:44;;;;;;;9.55;7.03;;;7.00;99.90;;;;;;474935;249;27570;-74
2023/12/14 04:05:45;;;;;;;9.07;6.68;;;7.00;99.90;;;;;;475024;249;28001;-74
2023/12/14 04:07:46;;;;;;;11.73;8.13;;;7.00;99.90;;;;;;474986;249;27988;-75
2023/12/14 04:09:48;;;;;;;14.73;8.30;;;7.00;99.90;;;;;;474847;249;27649;-74
2023/12/14 04:11:49;;;;;;;11.00;7.97;;;7.00;99.90;;;;;;474843;249;27534;-75
2023/12/14 04:13:53;;;;;;;12.45;7.32;;;7.00;99.90;;;;;;474819;250;27524;-76
2023/12/14 04:15:51;;;;;;;11.67;7.37;;;7.00;99.90;;;;;;474780;250;27553;-75
2023/12/14 04:17:53;;;;;;;11.02;8.25;;;7.00;99.90;;;;;;474922;249;29153;-74
2023/12/14 04:19:54;;;;;;;12.77;7.97;;;7.00;99.90;;;;;;474932;249;28056;-74
2023/12/14 04:21:55;;;;;;;11.40;7.57;;;6.90;99.90;;;;;;474976;249;27561;-74
2023/12/14 04:23:57;;;;;;;13.40;8.52;;;6.90;99.90;;;;;;474157;249;28887;-75
2023/12/14 04:25:58;;;;;;;14.85;8.05;;;7.00;99.90;;;;;;469377;249;27525;-74
2023/12/14 04:27:59;;;;;;;11.85;7.78;;;6.90;99.90;;;;;;470215;253;27642;-74
2023/12/14 04:30:00;;;;;;;12.65;8.15;;;6.90;99.90;;;;;;471052;252;27962;-74
2023/12/14 04:32:02;;;;;;;11.25;7.78;;;6.90;99.90;;;;;;470201;253;28080;-74
2023/12/14 04:34:03;;;;;;;12.15;8.48;;;6.90;99.90;;;;;;471097;252;27524;-73
2023/12/14 04:36:04;;;;;;;10.75;7.68;;;6.90;99.90;;;;;;470219;253;27598;-74
2023/12/14 04:38:05;;;;;;;8.68;6.57;;;6.90;99.90;;;;;;471101;252;27826;-74
2023/12/14 04:40:07;;;;;;;10.10;7.27;;;6.90;99.90;;;;;;470177;250;27538;-73
2023/12/14 04:42:08;;;;;;;11.80;7.53;;;6.90;99.90;;;;;;471219;252;29497;-75
2023/12/14 04:44:10;;;;;;;12.30;7.45;;;6.90;99.90;;;;;;470181;251;28102;-74
2023/12/14 04:46:10;;;;;;;9.98;6.85;;;6.80;99.90;;;;;;462281;257;27483;-74
2023/12/14 04:48:11;;;;;;;13.57;7.77;;;6.80;99.90;;;;;;470191;251;27579;-75
2023/12/14 04:50:13;;;;;;;11.52;7.50;;;6.80;99.90;;;;;;470201;253;28606;-76
2023/12/14 04:52:14;;;;;;;8.32;6.57;;;6.80;99.90;;;;;;462038;257;27501;-74
2023/12/14 04:54:15;;;;;;;9.93;6.62;;;6.80;99.90;;;;;;471186;252;28495;-75
2023/12/14 04:56:17;;;;;;;9.77;6.90;;;6.90;99.90;;;;;;470335;253;27914;-75
2023/12/14 04:58:18;;;;;;;10.50;6.95;;;6.80;99.90;;;;;;471177;252;27571;-73
2023/12/14 05:00:19;;;;;;;9.80;6.55;;;6.80;99.90;;;;;;470284;253;27612;-74
2023/12/14 05:02:20;;;;;;;8.50;6.82;;;6.90;99.90;;;;;;462120;257;27619;-74
2023/12/14 05:04:22;;;;;;;10.55;6.90;;;6.90;99.90;;;;;;471180;252;27809;-74
2023/12/14 05:06:23;;;;;;;10.27;7.10;;;6.90;99.90;;;;;;470331;253;27473;-76
2023/12/14 05:08:24;;;;;;;10.88;6.35;;;6.80;99.90;;;;;;471195;252;28012;-74
2023/12/14 05:10:25;;;;;;;10.32;7.00;;;6.90;99.90;;;;;;470312;253;27438;-75
2023/12/14 05:12:28;;;;;;;10.07;6.97;;;6.90;99.90;;;;;;471183;252;27508;-74
2023/12/14 05:14:29;;;;;;;10.85;6.87;;;6.90;99.90;;;;;;470098;253;27511;-74
2023/12/14 05:16:31;;;;;;;9.05;6.53;;;6.90;99.90;;;;;;470225;252;27452;-74
2023/12/14 05:18:32;;;;;;;8.27;6.47;;;6.90;99.90;;;;;;470091;253;28066;-74
2023/12/14 05:20:33;;;;;;;12.20;7.37;;;6.90;99.90;;;;;;470936;252;27562;-74
2023/12/14 05:22:34;;;;;;;8.70;6.63;;;6.90;99.90;;;;;;470248;253;27466;-73
2023/12/14 05:24:36;;;;;;;7.53;5.97;;;6.90;99.90;;;;;;471096;252;28809;-74
2023/12/14 05:26:37;;;;;;;9.48;6.50;;;6.80;99.90;;;;;;470218;253;27517;-73
2023/12/14 05:28:38;;;;;;;8.27;6.50;;;6.80;99.90;;;;;;461940;257;27522;-72
2023/12/14 05:30:39;;;;;;;9.35;6.32;;;6.80;99.90;;;;;;471098;252;27496;-74
2023/12/14 05:32:41;;;;;;;7.70;5.85;;;6.80;99.90;;;;;;470201;253;28144;-73
2023/12/14 05:34:42;;;;;;;8.52;6.65;;;6.80;99.90;;;;;;471068;250;27436;-74
2023/12/14 05:36:43;;;;;;;10.07;6.30;;;6.80;99.90;;;;;;470235;253;27494;-75
2023/12/14 05:38:44;;;;;;;9.68;6.28;;;6.90;99.90;;;;;;471102;252;28628;-74
2023/12/14 05:40:46;;;;;;;10.02;6.78;;;6.80;99.90;;;;;;470231;253;27434;-75
2023/12/14 05:42:47;;;;;;;8.02;6.00;;;6.80;99.90;;;;;;471210;252;28016;-74
2023/12/14 05:44:48;;;;;;;9.10;6.62;;;6.80;99.90;;;;;;470368;253;27478;-73
2023/12/14 05:46:49;;;;;;;9.90;6.85;;;6.80;99.90;;;;;;471158;252;27499;-75
2023/12/14 05:48:51;;;;;;;7.90;6.45;;;6.80;99.90;;;;;;470325;253;27521;-74
2023/12/14 05:50:52;;;;;;;9.23;6.62;;;6.80;99.90;;;;;;471233;252;27444;-74
2023/12/14 05:52:53;;;;;;;8.95;6.40;;;6.80;99.90;;;;;;470269;251;27466;-75
2023/12/14 05:54:54;;;;;;;9.00;6.47;;;6.80;99.90;;;;;;470952;249;28166;-73
2023/12/14 05:56:56;;;;;;;9.30;6.00;;;6.80;99.90;;;;;;470137;253;29516;-73
2023/12/14 05:58:57;;;;;;;8.38;6.35;;;6.90;99.90;;;;;;470698;252;29552;-74
2023/12/14 06:00:58;;;;;;;9.27;6.60;;;6.90;99.90;;;;;;469806;253;27597;-74
2023/12/14 06:02:59;;;;;;;9.15;6.90;;;6.80;99.90;;;;;;470962;252;27463;-74
2023/12/14 06:05:01;;;;;;;9.10;6.67;;;6.80;99.90;;;;;;470034;253;27585;-74
2023/12/14 06:07:02;;;;;;;9.82;6.53;;;6.90;99.90;;;;;;471061;252;28823;-74
2023/12/14 06:09:03;;;;;;;9.60;7.10;;;6.80;99.90;;;;;;470211;253;27489;-74
2023/12/14 06:11:06;;;;;;;10.30;6.28;;;6.80;99.90;;;;;;471089;252;28092;-74
2023/12/14 06:13:06;;;;;;;11.88;7.35;;;6.70;99.90;;;;;;470252;253;27961;-74
2023/12/14 06:15:07;;;;;;;8.95;6.57;;;6.60;99.90;;;;;;471180;252;27483;-74
2023/12/14 06:17:08;;;;;;;12.48;7.28;;;6.60;99.90;;;;;;470179;253;27601;-73
2023/12/14 06:19:09;;;;;;;10.52;7.53;;;6.60;99.90;;;;;;471043;252;27573;-73
2023/12/14 06:21:11;;;;;;;9.38;6.85;;;6.60;99.90;;;;;;470195;253;27955;-74
2023/12/14 06:23:12;;;;;;;9.73;6.62;;;6.60;99.90;;;;;;471091;252;27431;-73
2023/12/14 06:25:13;;;;;;;9.48;6.65;;;6.60;99.90;;;;;;470206;253;27735;-74
2023/12/14 06:27:14;;;;;;;10.48;6.30;;;6.60;99.90;;;;;;471106;252;27535;-74
2023/12/14 06:29:16;;;;;;;8.67;6.37;;;6.70;99.90;;;;;;470329;253;27438;-75
2023/12/14 06:31:17;;;;;;;10.18;6.93;;;6.70;99.90;;;;;;471138;252;28965;-74
2023/12/14 06:33:18;;;;;;;8.20;6.03;;;6.70;99.90;;;;;;470323;250;28041;-74
2023/12/14 06:35:20;;;;;;;8.73;6.40;;;6.70;99.90;;;;;;471190;252;27966;-74
2023/12/14 06:37:21;;;;;;;14.00;6.97;;;6.60;99.90;;;;;;470304;253;27481;-73
2023/12/14 06:39:23;;;;;;;10.48;7.50;;;6.50;99.90;;;;;;471220;252;27565;-73
2023/12/14 06:41:23;;;;;;;10.85;7.05;;;6.50;99.90;;;;;;470283;253;27586;-74
2023/12/14 06:43:25;;;;;;;10.73;7.60;;;6.50;99.90;;;;;;471036;252;27518;-73
2023/12/14 06:45:28;;;;;;;14.25;7.53;;;6.40;99.90;;;;;;470100;253;28028;-74
2023/12/14 06:47:30;;;;;;;10.30;7.05;;;6.50;99.90;;;;;;471102;252;27544;-74
2023/12/14 06:49:31;;;;;;;10.35;7.20;;;6.50;99.90;;;;;;470305;253;27554;-75
2023/12/14 06:51:32;;;;;;;7.97;6.37;;;6.50;99.90;;;;;;471190;252;27574;-74
2023/12/14 06:53:33;;;;;;;10.35;6.32;;;6.60;99.90;;;;;;470341;253;27574;-74
2023/12/14 06:55:35;;;;;;;10.52;6.40;;;6.60;99.90;;;;;;471037;252;27983;-74
2023/12/14 06:57:36;;;;;;;9.23;6.72;;;6.50;99.90;;;;;;470213;253;28085;-74
2023/12/14 06:59:37;;;;;;;9.98;6.78;;;6.60;99.90;;;;;;471149;252;27475;-75
2023/12/14 07:01:38;;;;;;;9.02;6.65;;;6.60;99.90;;;;;;470299;250;27664;-74
2023/12/14 07:03:40;;;;;;;8.73;6.80;;;6.50;99.90;;;;;;470217;252;27468;-73
2023/12/14 07:05:41;;;;;;;9.55;6.60;;;6.50;99.90;;;;;;469253;253;27540;-73
2023/12/14 07:07:42;;;;;;;10.35;6.43;;;6.60;99.90;;;;;;463050;256;27501;-74
2023/12/14 07:09:46;;;;;;;8.77;6.23;;;6.60;99.90;;;;;;470781;253;27981;-72
2023/12/14 07:11:45;;;;;;;9.48;6.28;;;6.60;99.90;;;;;;471173;252;28985;-77
2023/12/14 07:13:46;;;;;;;10.27;6.50;;;6.50;99.90;;;;;;470376;248;28051;-74
2023/12/14 07:15:47;;;;;;;8.73;6.30;;;6.50;99.90;;;;;;471153;252;27491;-76
2023/12/14 07:17:49;;;;;;;10.73;6.65;;;6.50;99.90;;;;;;470282;249;28057;-76
2023/12/14 07:19:50;;;;;;;10.65;7.12;;;6.40;99.90;;;;;;470860;252;28001;-74
2023/12/14 07:21:51;;;;;;;10.43;7.47;;;6.40;99.90;;;;;;469757;253;27598;-73
2023/12/14 07:23:52;;;;;;;9.88;6.47;;;6.50;99.90;;;;;;479036;248;27463;-73
2023/12/14 07:25:54;;;;;;;10.40;6.82;;;6.40;99.90;;;;;;475265;248;27571;-72
2023/12/14 07:27:55;;;;;;;8.07;6.05;;;6.50;99.90;;;;;;470330;253;27553;-73
2023/12/14 07:29:56;;;;;;;11.02;7.12;;;6.50;99.90;;;;;;471157;252;27583;-73
2023/12/14 07:31:57;;;;;;;9.38;5.95;;;6.60;99.90;;;;;;470130;253;28003;-74
2023/12/14 07:33:59;;;;;;;11.20;6.87;;;6.60;99.90;;;;;;475206;248;27563;-73
2023/12/14 07:36:00;;;;;;;8.30;6.65;;;6.60;99.90;;;;;;471181;252;27479;-75
2023/12/14 07:38:01;;;;;;;9.80;6.82;;;6.60;99.90;;;;;;470266;249;27555;-73
2023/12/14 07:40:03;;;;;;;9.80;6.80;;;6.60;99.90;;;;;;470807;252;27624;-75
2023/12/14 07:42:04;;;;;;;11.27;7.20;;;6.60;99.90;;;;;;469980;253;27565;-74
2023/12/14 07:44:05;;;;;;;8.90;6.07;;;6.60;99.90;;;;;;479082;248;28003;-73
2023/12/14 07:46:06;;;;;;;11.20;7.57;;;6.60;99.90;;;;;;479035;248;27595;-74
2023/12/14 07:48:07;;;;;;;10.50;7.47;;;6.60;99.90;;;;;;461779;256;27663;-73
2023/12/14 07:50:09;;;;;;;10.00;7.28;;;6.60;99.90;;;;;;479659;248;28560;-75
2023/12/14 07:52:13;;;;;;;12.10;7.50;;;6.60;99.90;;;;;;480062;248;27859;-77
2023/12/14 07:54:12;;;;;;;9.60;6.90;;;6.60;99.90;;;;;;479882;248;27480;-76
2023/12/14 07:56:14;;;;;;;8.75;6.85;;;6.50;99.90;;;;;;479994;248;27404;-78
2023/12/14 07:58:15;;;;;;;11.50;7.87;;;6.60;99.90;;;;;;462310;256;27596;-73
2023/12/14 08:00:17;;;;;;;9.18;6.35;;;6.60;99.90;;;;;;479765;248;28640;-74
2023/12/14 08:02:18;;;;;;;7.97;5.93;;;6.70;99.90;;;;;;479563;248;27605;-75
2023/12/14 08:04:20;;;;;;;9.65;7.75;;;6.70;99.90;;;;;;461821;256;28548;-74
2023/12/14 08:06:21;;;;;;;9.02;6.45;;;6.70;99.90;;;;;;476373;248;27982;-77
2023/12/14 08:08:22;;;;;;;8.85;7.15;;;6.70;99.90;;;;;;470145;253;27594;-74
2023/12/14 08:10:23;;;;;;;9.13;6.05;;;6.70;99.90;;;;;;471082;252;27587;-73
2023/12/14 08:12:25;;;;;;;8.32;5.95;;;6.70;99.90;;;;;;470301;249;27577;-75
2023/12/14 08:14:26;;;;;;;9.00;6.40;;;6.70;99.90;;;;;;471265;252;27925;-75
2023/12/14 08:16:27;;;;;;;10.38;6.43;;;6.60;99.90;;;;;;470178;253;29298;-75
2023/12/14 08:18:28;;;;;;;8.48;6.15;;;6.60;99.90;;;;;;471244;252;27558;-74
2023/12/14 08:20:30;;;;;;;8.77;6.43;;;6.60;99.90;;;;;;470355;253;27556;-76
2023/12/14 08:22:31;;;;;;;10.25;6.57;;;6.60;99.90;;;;;;471324;252;27517;-74
2023/12/14 08:24:32;;;;;;;7.43;5.68;;;6.60;99.90;;;;;;470235;253;27591;-76
2023/12/14 08:26:34;;;;;;;8.00;6.07;;;6.60;99.90;;;;;;471251;252;27972;-76
2023/12/14 08:28:35;;;;;;;11.27;7.15;;;6.70;99.90;;;;;;470281;253;27957;-74
2023/12/14 08:30:38;;;;;;;9.85;6.78;;;6.70;99.90;;;;;;471116;252;27488;-74
2023/12/14 08:32:37;;;;;;;10.15;6.32;;;6.70;99.90;;;;;;470183;253;27479;-75
2023/12/14 08:34:39;;;;;;;7.18;5.50;;;6.70;99.90;;;;;;471067;252;27826;-74
2023/12/14 08:36:40;;;;;;;7.10;5.18;;;6.80;99.90;;;;;;470288;253;27527;-76
2023/12/14 08:38:41;;;;;;;9.50;6.78;;;6.80;99.90;;;;;;471155;252;28097;-75
2023/12/14 08:40:42;;;;;;;9.10;5.62;;;6.80;99.90;;;;;;470288;253;27888;-74
2023/12/14 08:42:44;;;;;;;8.20;6.00;;;6.90;99.90;;;;;;471097;252;27481;-73
2023/12/14 08:44:45;;;;;;;7.95;5.78;;;6.90;99.90;;;;;;470070;253;27523;-74
2023/12/14 08:46:46;;;;;;;9.87;6.40;;;6.90;99.90;;;;;;471215;252;27461;-75
2023/12/14 08:48:48;;;;;;;9.65;6.37;;;6.90;99.90;;;;;;470331;253;28316;-76
2023/12/14 08:50:49;;;;;;;8.43;6.40;;;6.90;99.90;;;;;;471167;249;28010;-75
2023/12/14 08:52:50;;;;;;;9.20;6.37;;;6.90;99.90;;;;;;470323;253;28723;-73
2023/12/14 08:54:51;;;;;;;9.60;6.20;;;6.90;99.90;;;;;;468333;249;28058;-74
2023/12/14 08:56:52;;;;;;;9.48;5.95;;;6.90;99.90;;;;;;470177;253;28268;-75
2023/12/14 08:58:54;;;;;;;8.52;6.18;;;6.90;99.90;;;;;;471096;252;27570;-75
2023/12/14 09:00:55;;;;;;;8.77;6.28;;;6.90;99.90;;;;;;470228;253;27434;-73
2023/12/14 09:02:56;;;;;;;9.30;6.53;;;6.90;99.90;;;;;;461994;253;27450;-74
2023/12/14 09:04:58;;;;;;;8.40;6.18;;;6.90;99.90;;;;;;461936;257;27482;-74
2023/12/14 09:06:59;;;;;;;7.70;5.93;;;6.90;99.90;;;;;;470095;253;28758;-75
2023/12/14 09:09:00;;;;;;;6.93;5.40;;;6.90;99.90;;;;;;470140;253;28930;-75
2023/12/14 09:11:02;;;;;;;9.77;5.57;;;6.90;99.90;;;;;;465445;248;27475;-74
2023/12/14 09:13:04;;;;;;;7.90;5.80;;;7.00;99.90;;;;;;454260;262;27563;-73
2023/12/14 09:15:04;;;;;;;10.27;5.87;;;7.00;99.90;;;;;;465254;253;28387;-74
2023/12/14 09:17:05;;;;;;;7.83;5.57;;;7.00;99.90;;;;;;471113;252;27503;-76
2023/12/14 09:19:06;;;;;;;9.20;5.90;;;7.00;99.90;;;;;;470231;253;28856;-73
2023/12/14 09:21:08;;;;;;;8.00;6.10;;;7.00;99.90;;;;;;471072;252;28872;-74
2023/12/14 09:23:09;;;;;;;7.33;5.67;;;7.00;99.90;;;;;;470044;253;28113;-75
2023/12/14 09:25:11;;;;;;;7.70;5.37;;;7.00;99.90;;;;;;479276;248;28818;-75
2023/12/14 09:27:14;;;;;;;8.20;5.30;;;7.00;99.90;;;;;;478711;248;29239;-75
2023/12/14 09:29:15;;;;;;;7.13;5.20;;;7.00;99.90;;;;;;479408;248;28113;-75
2023/12/14 09:31:16;;;;;;;6.37;5.23;;;7.00;99.90;;;;;;461692;253;28208;-75
2023/12/14 09:33:17;;;;;;;7.67;5.50;;;7.00;99.90;;;;;;470132;253;28819;-74
2023/12/14 09:35:18;;;;;;;7.20;5.03;;;7.00;99.90;;;;;;471160;252;28459;-75
2023/12/14 09:37:20;;;;;;;9.73;5.97;;;7.00;99.90;;;;;;470320;253;29120;-75
2023/12/14 09:39:22;;;;;;;7.00;4.90;;;7.00;99.90;;;;;;471150;252;27455;-74
2023/12/14 09:41:22;;;;;;;7.23;5.57;;;7.10;99.90;;;;;;470254;253;28485;-74
2023/12/14 09:43:23;;;;;;;6.97;5.17;;;7.10;99.90;;;;;;462388;257;28109;-76
2023/12/14 09:45:25;;;;;;;6.47;5.10;;;7.10;99.90;;;;;;470217;252;28178;-77
2023/12/14 09:47:26;;;;;;;8.43;5.50;;;7.10;99.90;;;;;;462187;257;28970;-75
2023/12/14 09:49:30;;;;;;;7.23;5.70;;;7.10;99.90;;;;;;470163;252;28482;-78
2023/12/14 09:51:31;;;;;;;6.00;4.73;;;7.10;99.90;;;;;;462157;257;28155;-77
2023/12/14 09:53:32;;;;;;;7.80;5.30;;;7.10;99.90;;;;;;470216;252;27956;-75
2023/12/14 09:55:34;;;;;;;7.20;5.50;;;7.20;99.90;;;;;;462225;257;27807;-75
2023/12/14 09:57:35;;;;;;;7.67;5.30;;;7.20;99.90;;;;;;470187;252;27906;-76
2023/12/14 09:59:36;;;;;;;16.40;5.73;;;7.20;99.90;;;;;;462191;257;28533;-75
2023/12/14 10:01:38;;;;;;;7.73;5.10;;;7.20;99.90;;;;;;470228;252;28711;-76
2023/12/14 10:03:39;;;;;;;8.02;5.78;;;7.20;99.90;;;;;;462176;257;28867;-75
2023/12/14 10:05:40;;;;;;;8.20;5.33;;;7.20;99.90;;;;;;470517;253;27466;-78
2023/12/14 10:07:43;;;;;;;7.67;5.73;;;7.20;99.90;;;;;;471481;252;28216;-78
2023/12/14 10:09:43;;;;;;;9.23;6.60;;;7.10;99.90;;;;;;470745;253;27923;-78
2023/12/14 10:11:44;;;;;;;12.50;5.30;;;7.10;99.90;;;;;;471239;252;28171;-76
2023/12/14 10:13:45;;;;;;;10.30;6.50;;;7.10;99.90;;;;;;470348;253;28037;-74
2023/12/14 10:15:46;;;;;;;7.57;5.60;;;7.10;99.90;;;;;;471069;252;27940;-74
2023/12/14 10:17:53;;;;;;;6.33;4.40;;;7.20;99.90;;;;;;470199;253;28933;-76
2023/12/14 10:19:49;;;;;;;6.85;5.20;;;7.20;99.90;;;;;;478988;248;27850;-75
2023/12/14 10:21:50;;;;;;;7.80;5.30;;;7.20;99.90;;;;;;470328;248;27650;-74
2023/12/14 10:23:52;;;;;;;7.57;5.37;;;7.10;99.90;;;;;;470238;253;27990;-74
2023/12/14 10:25:53;;;;;;;7.53;6.40;;;7.10;99.90;;;;;;470786;252;28413;-75
2023/12/14 10:27:54;;;;;;;7.10;4.97;;;7.10;99.90;;;;;;471181;252;28363;-77
2023/12/14 10:29:55;;;;;;;6.37;4.97;;;7.10;99.90;;;;;;474004;248;28201;-76
2023/12/14 10:31:56;;;;;;;6.93;4.17;;;7.10;99.90;;;;;;471077;252;28437;-76
2023/12/14 10:33:58;;;;;;;6.90;5.47;;;7.20;99.90;;;;;;470209;253;28375;-75
2023/12/14 10:35:59;;;;;;;8.07;5.32;;;7.20;99.90;;;;;;471088;252;27872;-77